Time;durP1;ratioP1;P1;durP2;ratioP2;P2;SDS_P1;SDS_P2;PMS_P1;PMS_P2;Temp;Humidity;BMP_temperature;BMP_pressure;BME280_temperature;BME280_humidity;BME280_pressure;Samples;Min_cycle;Max_cycle;Signal;HPM_P1;HPM_P2
2024/01/22 00:01:24;;;;;;;5.20;3.23;;;;;;;;;;5089210;28;20474;-87
2024/01/22 00:03:49;;;;;;;6.60;3.60;;;;;;;;;;5078717;28;20111;-87
2024/01/22 00:06:14;;;;;;;9.73;3.50;;;;;;;;;;5074261;28;20371;-87
2024/01/22 00:08:40;;;;;;;6.63;3.20;;;;;;;;;;5093472;28;20024;-87
2024/01/22 00:11:05;;;;;;;5.77;2.70;;;;;;;;;;5093051;28;20016;-88
2024/01/22 00:13:30;;;;;;;6.37;3.20;;;;;;;;;;5091011;28;20004;-87
2024/01/22 00:15:56;;;;;;;10.00;3.20;;;;;;;;;;5093453;28;20035;-88
2024/01/22 00:18:22;;;;;;;5.63;3.45;;;;;;;;;;5094000;28;20090;-88
2024/01/22 00:20:47;;;;;;;3.50;2.60;;;;;;;;;;5084540;28;20128;-87
2024/01/22 00:23:12;;;;;;;10.83;3.53;;;;;;;;;;5091981;28;20038;-87
2024/01/22 00:25:37;;;;;;;12.50;3.20;;;;;;;;;;5093774;28;20074;-88
2024/01/22 00:28:03;;;;;;;8.00;2.90;;;;;;;;;;5074570;28;20111;-88
2024/01/22 00:30:28;;;;;;;6.03;3.03;;;;;;;;;;5073412;28;20028;-88
2024/01/22 00:32:53;;;;;;;6.77;3.10;;;;;;;;;;5075730;28;20021;-88
2024/01/22 00:35:19;;;;;;;5.33;2.87;;;;;;;;;;5094171;28;20039;-88
2024/01/22 00:37:44;;;;;;;5.15;2.83;;;;;;;;;;5094447;28;20100;-88
2024/01/22 00:40:09;;;;;;;4.00;2.60;;;;;;;;;;5093214;28;20016;-87
2024/01/22 00:42:34;;;;;;;5.40;2.80;;;;;;;;;;5092371;28;20016;-88
2024/01/22 00:45:00;;;;;;;8.13;3.00;;;;;;;;;;5092666;28;20024;-87
2024/01/22 00:47:25;;;;;;;5.77;2.40;;;;;;;;;;5092519;28;20024;-88
2024/01/22 00:49:50;;;;;;;3.87;2.80;;;;;;;;;;5092555;28;20028;-87
2024/01/22 00:52:15;;;;;;;6.93;2.93;;;;;;;;;;5092367;28;20024;-88
2024/01/22 00:54:40;;;;;;;6.10;2.80;;;;;;;;;;5092433;28;20637;-87
2024/01/22 00:57:06;;;;;;;6.97;2.67;;;;;;;;;;5091817;28;20056;-87
2024/01/22 00:59:31;;;;;;;5.10;2.40;;;;;;;;;;5093865;28;20085;-88
2024/01/22 01:01:56;;;;;;;4.53;2.37;;;;;;;;;;5092183;28;20099;-87
2024/01/22 01:04:21;;;;;;;5.73;2.63;;;;;;;;;;5092505;28;20506;-87
2024/01/22 01:06:46;;;;;;;3.90;1.97;;;;;;;;;;5092208;28;20129;-87
2024/01/22 01:09:11;;;;;;;3.90;2.40;;;;;;;;;;5092872;28;20431;-87
2024/01/22 01:11:37;;;;;;;7.07;2.50;;;;;;;;;;5091742;28;20020;-87
2024/01/22 01:14:02;;;;;;;5.47;2.40;;;;;;;;;;5091758;28;20073;-87
2024/01/22 01:16:28;;;;;;;3.97;2.23;;;;;;;;;;5091473;28;20387;-87
2024/01/22 01:18:54;;;;;;;4.18;2.33;;;;;;;;;;5088707;28;20031;-87
2024/01/22 01:21:22;;;;;;;5.27;2.07;;;;;;;;;;5092793;28;20463;-87
2024/01/22 01:23:47;;;;;;;6.45;2.38;;;;;;;;;;5091518;28;20045;-86
2024/01/22 01:26:13;;;;;;;4.93;2.37;;;;;;;;;;5090214;28;20055;-88
2024/01/22 01:28:38;;;;;;;6.97;2.30;;;;;;;;;;5092512;28;20106;-87
2024/01/22 01:31:03;;;;;;;3.60;1.97;;;;;;;;;;5091490;28;20043;-88
2024/01/22 01:33:28;;;;;;;6.20;2.17;;;;;;;;;;5091549;28;20024;-87
2024/01/22 01:35:54;;;;;;;5.07;2.03;;;;;;;;;;5075559;28;20028;-87
2024/01/22 01:38:19;;;;;;;5.73;2.30;;;;;;;;;;5092460;28;20012;-87
2024/01/22 01:40:44;;;;;;;5.37;2.53;;;;;;;;;;5091719;28;20016;-87
2024/01/22 01:43:09;;;;;;;2.70;2.00;;;;;;;;;;5097465;28;20378;-87
2024/01/22 01:45:34;;;;;;;4.33;2.10;;;;;;;;;;5090061;28;20096;-87
2024/01/22 01:48:00;;;;;;;7.90;2.23;;;;;;;;;;5090256;28;20081;-87
2024/01/22 01:50:25;;;;;;;3.20;1.80;;;;;;;;;;5090535;28;20051;-87
2024/01/22 01:52:52;;;;;;;3.60;1.70;;;;;;;;;;5091039;28;20024;-86
2024/01/22 01:55:19;;;;;;;3.30;1.67;;;;;;;;;;5090774;28;20021;-87
2024/01/22 01:57:45;;;;;;;1.83;1.63;;;;;;;;;;5091320;28;20478;-87
2024/01/22 02:00:10;;;;;;;4.33;1.63;;;;;;;;;;5091012;28;20032;-87
2024/01/22 02:02:41;;;;;;;2.93;2.03;;;;;;;;;;5092619;28;20016;-88
2024/01/22 02:05:06;;;;;;;3.30;1.70;;;;;;;;;;5090279;28;20769;-87
2024/01/22 02:07:32;;;;;;;3.13;1.70;;;;;;;;;;5091388;28;20030;-87
2024/01/22 02:09:57;;;;;;;2.17;1.70;;;;;;;;;;5091192;28;20104;-87
2024/01/22 02:12:23;;;;;;;4.10;1.77;;;;;;;;;;5091021;28;20048;-87
2024/01/22 02:14:48;;;;;;;3.17;1.70;;;;;;;;;;5089088;28;20364;-87
2024/01/22 02:17:14;;;;;;;3.90;2.00;;;;;;;;;;5089677;28;20016;-87
2024/01/22 02:19:39;;;;;;;3.93;2.00;;;;;;;;;;5090587;28;20375;-87
2024/01/22 02:22:05;;;;;;;2.53;1.70;;;;;;;;;;5090968;28;20451;-87
2024/01/22 02:24:30;;;;;;;2.85;1.65;;;;;;;;;;5090616;28;20089;-87
2024/01/22 02:26:55;;;;;;;3.67;1.90;;;;;;;;;;5090443;28;20483;-86
2024/01/22 02:29:20;;;;;;;3.60;1.90;;;;;;;;;;5090149;28;20071;-88
2024/01/22 02:31:49;;;;;;;4.63;2.00;;;;;;;;;;5090877;28;20020;-87
2024/01/22 02:34:17;;;;;;;1.60;1.43;;;;;;;;;;5090438;28;20483;-87
2024/01/22 02:36:42;;;;;;;4.90;1.80;;;;;;;;;;5090489;28;20285;-87
2024/01/22 02:39:07;;;;;;;2.73;1.50;;;;;;;;;;5090158;28;20077;-87
2024/01/22 02:41:33;;;;;;;2.83;1.57;;;;;;;;;;5089484;28;20266;-87
2024/01/22 02:43:58;;;;;;;3.37;2.00;;;;;;;;;;5090169;28;20027;-87
2024/01/22 02:46:24;;;;;;;3.20;1.83;;;;;;;;;;5090240;28;20090;-87
2024/01/22 02:48:50;;;;;;;3.85;1.70;;;;;;;;;;5089856;28;20023;-87
2024/01/22 02:51:15;;;;;;;3.27;1.60;;;;;;;;;;5089821;28;20024;-87
2024/01/22 02:53:40;;;;;;;2.60;1.57;;;;;;;;;;5087390;28;20099;-87
2024/01/22 02:56:06;;;;;;;3.37;1.47;;;;;;;;;;5090597;28;20107;-86
2024/01/22 02:58:31;;;;;;;3.27;1.60;;;;;;;;;;5090839;28;20043;-87
2024/01/22 03:00:56;;;;;;;3.57;1.87;;;;;;;;;;5089937;28;20024;-87
2024/01/22 03:03:21;;;;;;;2.70;1.50;;;;;;;;;;5071911;28;20712;-88
2024/01/22 03:05:46;;;;;;;4.50;1.77;;;;;;;;;;5079546;28;20082;-87
2024/01/22 03:08:12;;;;;;;3.20;1.77;;;;;;;;;;5089239;28;20024;-87
2024/01/22 03:10:37;;;;;;;5.70;1.40;;;;;;;;;;5091455;28;20093;-87
2024/01/22 03:13:02;;;;;;;2.23;1.53;;;;;;;;;;5089896;28;20510;-87
2024/01/22 03:15:27;;;;;;;1.95;1.40;;;;;;;;;;5088887;28;20131;-88
2024/01/22 03:17:52;;;;;;;3.97;1.60;;;;;;;;;;5090006;28;20012;-87
2024/01/22 03:20:18;;;;;;;5.47;1.80;;;;;;;;;;5089248;28;20464;-87
2024/01/22 03:22:43;;;;;;;2.60;1.60;;;;;;;;;;5089671;28;20020;-87
2024/01/22 03:25:08;;;;;;;2.73;1.57;;;;;;;;;;5088673;28;20027;-87
2024/01/22 03:27:33;;;;;;;3.57;1.50;;;;;;;;;;5089904;28;20392;-87
2024/01/22 03:29:59;;;;;;;3.60;1.80;;;;;;;;;;5089218;28;20028;-87
2024/01/22 03:32:26;;;;;;;2.47;1.60;;;;;;;;;;5087680;28;20017;-87
2024/01/22 03:34:51;;;;;;;2.42;1.65;;;;;;;;;;5088649;28;20044;-88
2024/01/22 03:37:16;;;;;;;2.57;1.33;;;;;;;;;;5088033;28;20568;-88
2024/01/22 03:39:41;;;;;;;4.63;1.50;;;;;;;;;;5090441;28;20028;-88
2024/01/22 03:42:08;;;;;;;3.80;1.60;;;;;;;;;;5088318;28;20453;-87
2024/01/22 03:44:33;;;;;;;2.63;1.55;;;;;;;;;;5088974;28;20016;-87
2024/01/22 03:46:58;;;;;;;3.20;1.57;;;;;;;;;;5088289;28;20077;-87
2024/01/22 03:49:23;;;;;;;3.23;1.50;;;;;;;;;;5088593;28;20586;-88
2024/01/22 03:51:48;;;;;;;1.77;1.40;;;;;;;;;;5083538;28;20848;-90
2024/01/22 03:54:13;;;;;;;1.90;1.67;;;;;;;;;;5080135;28;20115;-89
2024/01/22 03:56:39;;;;;;;2.10;1.37;;;;;;;;;;5089535;28;20023;-90
2024/01/22 03:59:04;;;;;;;2.07;1.30;;;;;;;;;;5089009;28;20020;-89
2024/01/22 04:01:29;;;;;;;2.90;1.40;;;;;;;;;;5088534;28;20073;-89
2024/01/22 04:03:54;;;;;;;1.70;1.33;;;;;;;;;;5089841;28;20020;-89
2024/01/22 04:06:20;;;;;;;3.57;1.47;;;;;;;;;;5088865;28;20025;-89
2024/01/22 04:08:45;;;;;;;6.20;1.60;;;;;;;;;;5089309;28;20046;-88
2024/01/22 04:11:10;;;;;;;4.43;1.60;;;;;;;;;;5089443;28;20156;-90
2024/01/22 04:13:37;;;;;;;2.27;1.50;;;;;;;;;;5089727;28;20066;-90
2024/01/22 04:16:03;;;;;;;2.33;1.23;;;;;;;;;;5087729;28;20036;-90
2024/01/22 04:18:28;;;;;;;2.73;1.30;;;;;;;;;;5071652;28;20023;-90
2024/01/22 04:20:53;;;;;;;2.53;1.60;;;;;;;;;;5090660;28;20486;-89
2024/01/22 04:23:18;;;;;;;3.23;1.40;;;;;;;;;;5089361;28;20433;-89
2024/01/22 04:25:43;;;;;;;2.07;1.20;;;;;;;;;;5083913;28;20440;-89
2024/01/22 04:28:09;;;;;;;3.17;1.13;;;;;;;;;;5082859;28;20031;-90
2024/01/22 04:30:34;;;;;;;3.40;1.40;;;;;;;;;;5088957;28;20028;-89
2024/01/22 04:32:59;;;;;;;2.47;1.37;;;;;;;;;;5091206;28;20107;-90
2024/01/22 04:35:24;;;;;;;4.60;1.33;;;;;;;;;;5087925;28;20452;-89
2024/01/22 04:37:49;;;;;;;2.03;1.17;;;;;;;;;;5089647;28;20036;-91
2024/01/22 04:40:15;;;;;;;2.17;1.50;;;;;;;;;;5090018;28;20020;-89
2024/01/22 04:42:40;;;;;;;1.83;1.27;;;;;;;;;;5090513;28;20301;-90
2024/01/22 04:45:06;;;;;;;4.13;1.30;;;;;;;;;;5095604;28;20063;-94
2024/01/22 04:47:31;;;;;;;2.55;1.02;;;;;;;;;;5092497;28;20457;-95
2024/01/22 04:49:57;;;;;;;4.50;1.10;;;;;;;;;;5089191;28;20039;-93
2024/01/22 04:52:22;;;;;;;1.70;0.93;;;;;;;;;;5088780;28;20027;-93
2024/01/22 04:54:47;;;;;;;1.97;1.10;;;;;;;;;;5090085;28;20106;-95
2024/01/22 04:57:13;;;;;;;2.23;0.90;;;;;;;;;;5096673;28;20062;-95
2024/01/22 04:59:38;;;;;;;1.77;0.90;;;;;;;;;;5093189;28;20283;-93
2024/01/22 05:02:03;;;;;;;2.50;1.07;;;;;;;;;;5094121;28;20040;-95
2024/01/22 05:04:28;;;;;;;1.87;0.90;;;;;;;;;;5097463;28;20027;-95
2024/01/22 05:06:54;;;;;;;1.53;0.80;;;;;;;;;;5103677;28;20020;-95
2024/01/22 05:09:19;;;;;;;3.80;1.10;;;;;;;;;;5097715;28;20031;-95
2024/01/22 05:11:44;;;;;;;4.07;1.30;;;;;;;;;;5087189;28;20017;-96
2024/01/22 05:14:09;;;;;;;2.17;1.10;;;;;;;;;;5093368;28;20031;-96
2024/01/22 05:16:37;;;;;;;2.47;0.87;;;;;;;;;;5097725;28;20103;-96
2024/01/22 05:19:02;;;;;;;1.60;0.88;;;;;;;;;;5094930;28;20020;-96
2024/01/22 05:21:27;;;;;;;5.17;0.87;;;;;;;;;;5095954;28;20112;-96
2024/01/22 05:23:52;;;;;;;1.87;0.90;;;;;;;;;;5098523;28;20503;-96
2024/01/22 05:26:18;;;;;;;3.10;1.10;;;;;;;;;;5077294;28;20111;-95
2024/01/22 05:28:43;;;;;;;2.17;0.80;;;;;;;;;;5087353;28;20479;-96
2024/01/22 05:31:08;;;;;;;2.03;0.90;;;;;;;;;;5095791;28;20685;-96
2024/01/22 05:33:33;;;;;;;1.60;0.80;;;;;;;;;;5095236;28;20016;-96
2024/01/22 05:35:59;;;;;;;3.42;0.85;;;;;;;;;;5097437;28;20047;-96
2024/01/22 05:38:25;;;;;;;3.70;1.00;;;;;;;;;;5105789;28;20012;-96
2024/01/22 05:40:50;;;;;;;2.27;0.87;;;;;;;;;;5100130;28;20432;-96
2024/01/22 05:43:15;;;;;;;3.22;0.90;;;;;;;;;;5095917;28;20085;-95
2024/01/22 05:45:41;;;;;;;2.23;1.13;;;;;;;;;;5083178;28;20038;-96
2024/01/22 05:48:07;;;;;;;3.37;1.00;;;;;;;;;;5098293;28;20084;-93
2024/01/22 05:50:33;;;;;;;2.28;0.88;;;;;;;;;;5097920;28;20016;-94
2024/01/22 05:52:58;;;;;;;1.70;1.10;;;;;;;;;;5110127;28;20020;-96
2024/01/22 05:55:24;;;;;;;2.83;0.90;;;;;;;;;;5106315;28;20438;-95
2024/01/22 05:57:49;;;;;;;3.60;0.93;;;;;;;;;;5092977;28;20030;-94
2024/01/22 06:00:14;;;;;;;2.80;1.17;;;;;;;;;;5099345;28;20024;-96
2024/01/22 06:02:40;;;;;;;2.13;0.93;;;;;;;;;;5085266;28;20027;-92
2024/01/22 06:05:06;;;;;;;2.03;1.30;;;;;;;;;;5086866;28;20028;-96
2024/01/22 06:07:31;;;;;;;2.90;1.08;;;;;;;;;;5084764;28;20027;-96
2024/01/22 06:09:57;;;;;;;3.03;1.33;;;;;;;;;;5092794;28;20020;-96
2024/01/22 06:12:22;;;;;;;3.97;1.33;;;;;;;;;;5098479;28;20023;-95
2024/01/22 06:14:47;;;;;;;2.63;1.20;;;;;;;;;;5094760;28;20043;-95
2024/01/22 06:17:12;;;;;;;2.67;1.27;;;;;;;;;;5095212;28;20641;-96
2024/01/22 06:19:38;;;;;;;3.67;1.40;;;;;;;;;;5078914;28;20028;-92
2024/01/22 06:22:03;;;;;;;4.60;1.13;;;;;;;;;;5101544;28;20085;-94
2024/01/22 06:24:29;;;;;;;3.10;1.40;;;;;;;;;;5094120;28;20182;-95
2024/01/22 06:26:54;;;;;;;2.13;1.53;;;;;;;;;;5094852;28;20020;-95
2024/01/22 06:29:19;;;;;;;2.90;1.47;;;;;;;;;;5100644;28;20157;-92
2024/01/22 06:31:44;;;;;;;4.73;1.37;;;;;;;;;;5094357;28;20308;-95
2024/01/22 06:34:11;;;;;;;2.47;1.37;;;;;;;;;;5082030;28;20116;-95
2024/01/22 06:36:36;;;;;;;5.93;2.10;;;;;;;;;;5084418;28;20024;-94
2024/01/22 06:39:02;;;;;;;3.23;1.53;;;;;;;;;;5096473;28;20045;-93
2024/01/22 06:41:27;;;;;;;2.10;1.30;;;;;;;;;;5098394;28;20027;-92
2024/01/22 06:43:52;;;;;;;5.43;1.53;;;;;;;;;;5097601;28;20020;-92
2024/01/22 06:46:17;;;;;;;3.33;1.37;;;;;;;;;;5099805;28;20502;-93
2024/01/22 06:48:42;;;;;;;3.93;1.57;;;;;;;;;;5077420;28;20101;-93
2024/01/22 06:51:09;;;;;;;1.93;1.23;;;;;;;;;;5090006;28;20115;-94
2024/01/22 06:53:34;;;;;;;3.22;1.50;;;;;;;;;;5074247;28;20027;-93
2024/01/22 06:56:00;;;;;;;4.63;1.40;;;;;;;;;;5066282;28;20032;-94
2024/01/22 06:58:25;;;;;;;3.93;1.50;;;;;;;;;;5077937;28;20471;-94
2024/01/22 07:00:51;;;;;;;2.73;1.30;;;;;;;;;;5075128;28;20081;-94
2024/01/22 07:03:16;;;;;;;3.63;1.40;;;;;;;;;;5071934;28;20016;-94
2024/01/22 07:05:41;;;;;;;2.40;1.20;;;;;;;;;;5072488;28;20017;-96
2024/01/22 07:08:07;;;;;;;4.80;1.47;;;;;;;;;;5100135;28;20064;-94
2024/01/22 07:10:33;;;;;;;3.97;1.70;;;;;;;;;;5095900;28;20052;-96
2024/01/22 07:12:58;;;;;;;3.05;1.67;;;;;;;;;;5086487;28;20024;-94
2024/01/22 07:15:26;;;;;;;1.87;1.40;;;;;;;;;;5098428;28;20083;-96
2024/01/22 07:17:51;;;;;;;5.13;1.77;;;;;;;;;;5079459;28;20043;-93
2024/01/22 07:20:17;;;;;;;2.50;1.50;;;;;;;;;;5094355;28;20020;-94
2024/01/22 07:22:43;;;;;;;5.37;1.93;;;;;;;;;;5089090;28;20126;-94
2024/01/22 07:25:09;;;;;;;3.25;1.50;;;;;;;;;;5088278;28;20039;-91
2024/01/22 07:27:37;;;;;;;4.90;1.55;;;;;;;;;;5080990;28;20024;-93
2024/01/22 07:30:07;;;;;;;6.45;1.80;;;;;;;;;;5099914;28;20020;-93
2024/01/22 07:32:34;;;;;;;5.67;1.90;;;;;;;;;;5101131;28;20016;-93
2024/01/22 07:34:59;;;;;;;4.27;1.70;;;;;;;;;;5096302;28;20784;-94
2024/01/22 07:37:25;;;;;;;6.82;1.52;;;;;;;;;;5094214;28;20020;-92
2024/01/22 07:39:50;;;;;;;6.10;1.60;;;;;;;;;;5091274;28;20020;-92
2024/01/22 07:42:15;;;;;;;6.90;1.93;;;;;;;;;;5092169;28;20016;-93
2024/01/22 07:44:40;;;;;;;5.70;1.63;;;;;;;;;;5091572;28;20049;-92
2024/01/22 07:47:05;;;;;;;6.80;1.50;;;;;;;;;;5089606;28;20073;-94
2024/01/22 07:49:31;;;;;;;7.70;1.40;;;;;;;;;;5078769;28;20036;-92
2024/01/22 07:51:56;;;;;;;6.50;1.50;;;;;;;;;;5083826;28;20475;-93
2024/01/22 07:54:21;;;;;;;8.43;1.57;;;;;;;;;;5090052;28;20066;-91
2024/01/22 07:56:47;;;;;;;10.50;1.50;;;;;;;;;;5091812;28;20127;-92
2024/01/22 07:59:12;;;;;;;13.98;4.22;;;;;;;;;;5086855;28;20378;-92
2024/01/22 08:01:37;;;;;;;10.77;1.63;;;;;;;;;;5079618;28;20016;-93
2024/01/22 08:04:03;;;;;;;12.23;2.00;;;;;;;;;;5090257;28;20035;-92
2024/01/22 08:06:28;;;;;;;12.73;1.70;;;;;;;;;;5090401;28;20103;-92
2024/01/22 08:08:54;;;;;;;15.70;2.10;;;;;;;;;;5082215;28;20074;-92
2024/01/22 08:11:19;;;;;;;9.27;1.70;;;;;;;;;;5088863;28;20076;-90
2024/01/22 08:13:44;;;;;;;20.63;2.50;;;;;;;;;;5091466;28;20379;-92
2024/01/22 08:16:09;;;;;;;18.03;2.97;;;;;;;;;;5089720;28;20472;-93
2024/01/22 08:18:34;;;;;;;23.17;2.77;;;;;;;;;;5098359;28;20031;-93
2024/01/22 08:20:59;;;;;;;24.77;2.87;;;;;;;;;;5092241;28;20090;-92
2024/01/22 08:23:25;;;;;;;22.37;2.93;;;;;;;;;;5090995;28;20024;-93
2024/01/22 08:25:50;;;;;;;22.25;2.80;;;;;;;;;;5090225;28;20061;-92
2024/01/22 08:28:15;;;;;;;25.10;3.30;;;;;;;;;;5085342;28;20059;-92
2024/01/22 08:30:41;;;;;;;24.13;2.70;;;;;;;;;;5074001;28;20772;-90
2024/01/22 08:33:06;;;;;;;24.80;3.20;;;;;;;;;;5095679;28;20031;-90
2024/01/22 08:35:31;;;;;;;18.17;2.37;;;;;;;;;;5094836;28;20035;-91
2024/01/22 08:37:56;;;;;;;31.47;2.87;;;;;;;;;;5093848;28;20016;-92
2024/01/22 08:40:22;;;;;;;22.83;2.50;;;;;;;;;;5093801;28;20051;-92
2024/01/22 08:42:49;;;;;;;20.85;2.88;;;;;;;;;;5093516;28;20021;-92
2024/01/22 08:45:15;;;;;;;26.07;3.43;;;;;;;;;;5093775;28;20518;-92
2024/01/22 08:47:42;;;;;;;22.93;2.10;;;;;;;;;;5092866;28;20282;-91
2024/01/22 08:50:07;;;;;;;24.30;2.50;;;;;;;;;;5072306;28;20090;-92
2024/01/22 08:52:33;;;;;;;24.07;2.33;;;;;;;;;;5090553;28;20021;-91
2024/01/22 08:54:58;;;;;;;20.63;2.20;;;;;;;;;;5094475;28;20046;-92
2024/01/22 08:57:23;;;;;;;17.37;2.43;;;;;;;;;;5094171;28;20046;-93
2024/01/22 08:59:48;;;;;;;19.00;2.90;;;;;;;;;;5093602;28;20103;-92
2024/01/22 09:02:14;;;;;;;18.27;2.40;;;;;;;;;;5093078;28;20024;-92
2024/01/22 09:04:39;;;;;;;12.27;1.97;;;;;;;;;;5095648;28;20020;-89
2024/01/22 09:07:04;;;;;;;19.80;2.77;;;;;;;;;;5093975;28;20043;-91
2024/01/22 09:09:29;;;;;;;15.33;2.50;;;;;;;;;;5094064;28;20042;-92
2024/01/22 09:11:55;;;;;;;19.20;2.57;;;;;;;;;;5093739;28;20540;-92
2024/01/22 09:14:20;;;;;;;23.07;3.00;;;;;;;;;;5096788;28;20314;-90
2024/01/22 09:16:45;;;;;;;20.90;2.93;;;;;;;;;;5099015;28;20050;-89
2024/01/22 09:19:10;;;;;;;25.20;3.72;;;;;;;;;;5080808;28;20596;-89
2024/01/22 09:21:36;;;;;;;23.90;2.83;;;;;;;;;;5079467;28;20030;-90
2024/01/22 09:24:01;;;;;;;30.43;2.87;;;;;;;;;;5094769;28;20024;-90
2024/01/22 09:26:26;;;;;;;30.57;3.60;;;;;;;;;;5095240;28;20016;-90
2024/01/22 09:28:53;;;;;;;22.67;2.90;;;;;;;;;;5093009;28;20045;-90
2024/01/22 09:31:18;;;;;;;22.25;3.28;;;;;;;;;;5091387;28;20032;-91
2024/01/22 09:33:44;;;;;;;17.23;2.50;;;;;;;;;;5093348;28;20012;-90
2024/01/22 09:36:09;;;;;;;21.85;3.33;;;;;;;;;;5094493;28;20056;-89
2024/01/22 09:38:34;;;;;;;17.17;2.43;;;;;;;;;;5087125;28;20027;-91
2024/01/22 09:41:00;;;;;;;24.30;2.77;;;;;;;;;;5071932;28;20388;-90
2024/01/22 09:43:25;;;;;;;20.60;2.80;;;;;;;;;;5092661;28;20497;-90
2024/01/22 09:45:50;;;;;;;19.07;2.73;;;;;;;;;;5094106;28;20027;-90
2024/01/22 09:48:16;;;;;;;19.53;2.43;;;;;;;;;;5088651;28;20004;-89
2024/01/22 09:50:41;;;;;;;19.53;2.87;;;;;;;;;;5073295;28;20032;-90
2024/01/22 09:53:08;;;;;;;17.87;2.67;;;;;;;;;;5091605;28;20095;-91
2024/01/22 09:55:34;;;;;;;17.03;2.30;;;;;;;;;;5094794;28;20290;-90
2024/01/22 09:58:01;;;;;;;12.85;2.08;;;;;;;;;;5094529;28;20020;-92
2024/01/22 10:00:27;;;;;;;12.27;2.35;;;;;;;;;;5093760;28;20487;-92
2024/01/22 10:02:52;;;;;;;18.55;2.47;;;;;;;;;;5092051;28;20008;-91
2024/01/22 10:05:18;;;;;;;15.67;2.20;;;;;;;;;;5092736;28;20020;-92
2024/01/22 10:07:44;;;;;;;10.32;1.73;;;;;;;;;;5093978;28;20022;-92
2024/01/22 10:10:09;;;;;;;11.13;2.20;;;;;;;;;;5090665;28;20020;-92
2024/01/22 10:12:53;;;;;;;13.50;2.10;;;;;;;;;;5080885;28;20127;-92
2024/01/22 10:15:19;;;;;;;12.93;2.10;;;;;;;;;;5077478;28;20025;-92
2024/01/22 10:17:44;;;;;;;11.90;1.83;;;;;;;;;;5086320;28;20027;-92
2024/01/22 10:20:09;;;;;;;15.53;2.00;;;;;;;;;;5075877;28;20031;-92
2024/01/22 10:22:35;;;;;;;12.33;1.90;;;;;;;;;;5085805;28;20043;-93
2024/01/22 10:25:00;;;;;;;11.53;1.37;;;;;;;;;;5093398;28;20027;-91
2024/01/22 10:27:26;;;;;;;25.70;2.20;;;;;;;;;;5090355;28;20023;-91
2024/01/22 10:29:51;;;;;;;14.25;2.38;;;;;;;;;;5087500;28;20040;-91
2024/01/22 10:32:20;;;;;;;15.27;1.80;;;;;;;;;;5084459;28;20016;-92
2024/01/22 10:34:51;;;;;;;13.50;1.85;;;;;;;;;;5093839;28;20040;-92
2024/01/22 10:37:17;;;;;;;25.53;2.67;;;;;;;;;;5079822;28;20035;-92
2024/01/22 10:39:43;;;;;;;29.80;2.70;;;;;;;;;;5093193;28;20309;-91
2024/01/22 10:42:12;;;;;;;20.77;2.30;;;;;;;;;;5091766;28;20012;-91
2024/01/22 10:44:39;;;;;;;29.67;3.50;;;;;;;;;;5091850;28;20073;-91
2024/01/22 10:47:05;;;;;;;29.23;2.80;;;;;;;;;;5091471;28;20469;-92
2024/01/22 10:49:31;;;;;;;22.20;2.60;;;;;;;;;;5091281;28;20115;-91
2024/01/22 10:52:02;;;;;;;24.50;2.83;;;;;;;;;;5091008;28;20089;-91
2024/01/22 10:54:27;;;;;;;34.88;3.42;;;;;;;;;;5092978;28;20023;-92
2024/01/22 10:57:08;;;;;;;32.80;3.83;;;;;;;;;;5092541;28;20095;-90
2024/01/22 10:59:38;;;;;;;39.75;3.45;;;;;;;;;;5080170;28;20028;-92
2024/01/22 11:02:05;;;;;;;45.85;4.65;;;;;;;;;;5071758;28;20020;-90
2024/01/22 11:04:33;;;;;;;39.00;4.40;;;;;;;;;;5076841;28;20113;-90
2024/01/22 11:07:02;;;;;;;39.33;3.50;;;;;;;;;;5091291;28;20023;-90
2024/01/22 11:09:31;;;;;;;39.00;4.03;;;;;;;;;;5092522;28;20247;-90
2024/01/22 11:11:59;;;;;;;39.95;4.25;;;;;;;;;;5091615;28;20016;-92
2024/01/22 11:14:24;;;;;;;45.47;4.72;;;;;;;;;;5091899;28;20020;-91
2024/01/22 11:16:49;;;;;;;39.63;4.53;;;;;;;;;;5094472;28;20064;-92
2024/01/22 11:19:19;;;;;;;42.13;4.40;;;;;;;;;;5075717;28;20073;-91
2024/01/22 11:21:44;;;;;;;40.90;4.32;;;;;;;;;;5093205;28;20028;-93
2024/01/22 11:24:11;;;;;;;41.07;3.97;;;;;;;;;;5092100;28;20030;-89
2024/01/22 11:26:40;;;;;;;45.38;4.63;;;;;;;;;;5090600;28;20027;-91
2024/01/22 11:29:06;;;;;;;38.42;4.13;;;;;;;;;;5070074;28;20549;-82
2024/01/22 11:31:34;;;;;;;55.17;5.50;;;;;;;;;;5088963;28;20035;-86
2024/01/22 11:33:59;;;;;;;50.63;4.97;;;;;;;;;;5088608;28;20274;-83
2024/01/22 11:36:30;;;;;;;55.90;6.53;;;;;;;;;;5089756;28;20031;-83
2024/01/22 11:38:56;;;;;;;49.13;5.83;;;;;;;;;;5088391;28;20030;-82
2024/01/22 11:41:27;;;;;;;50.90;5.37;;;;;;;;;;5089985;28;20353;-83
2024/01/22 11:43:52;;;;;;;45.87;5.60;;;;;;;;;;5089910;28;20028;-82
2024/01/22 11:46:17;;;;;;;44.73;5.20;;;;;;;;;;5086985;28;20339;-82
2024/01/22 11:48:43;;;;;;;47.10;5.37;;;;;;;;;;5088930;28;20085;-82
2024/01/22 11:51:08;;;;;;;44.87;5.83;;;;;;;;;;5084233;28;20438;-82
2024/01/22 11:53:49;;;;;;;46.13;6.47;;;;;;;;;;5053577;28;20035;-81
2024/01/22 11:56:14;;;;;;;54.60;6.53;;;;;;;;;;5089819;28;20059;-82
2024/01/22 11:58:39;;;;;;;45.70;5.13;;;;;;;;;;5088026;28;20737;-82
2024/01/22 12:01:06;;;;;;;36.83;5.13;;;;;;;;;;5083744;28;20055;-81
2024/01/22 12:03:31;;;;;;;47.70;5.23;;;;;;;;;;5086838;28;20035;-82
2024/01/22 12:06:00;;;;;;;38.00;4.47;;;;;;;;;;5068355;28;20289;-82
2024/01/22 12:08:25;;;;;;;43.37;4.70;;;;;;;;;;5085561;28;20028;-82
2024/01/22 12:10:52;;;;;;;39.70;5.05;;;;;;;;;;5081999;28;20035;-82
2024/01/22 12:13:18;;;;;;;48.80;4.90;;;;;;;;;;5085464;28;20035;-82
2024/01/22 12:15:43;;;;;;;33.03;4.27;;;;;;;;;;5086502;28;21076;-82
2024/01/22 12:18:09;;;;;;;50.57;5.70;;;;;;;;;;5087197;28;20023;-82
2024/01/22 12:20:34;;;;;;;43.50;5.17;;;;;;;;;;5085489;28;21370;-82
2024/01/22 12:23:00;;;;;;;44.90;4.70;;;;;;;;;;5085778;28;20016;-82
2024/01/22 12:25:34;;;;;;;42.03;5.38;;;;;;;;;;5082535;28;20024;-84
2024/01/22 12:28:17;;;;;;;37.67;4.55;;;;;;;;;;5069653;28;20029;-83
2024/01/22 12:30:42;;;;;;;40.30;4.80;;;;;;;;;;5084269;28;20039;-84
2024/01/22 12:33:18;;;;;;;33.83;4.33;;;;;;;;;;5089317;28;20020;-84
2024/01/22 12:35:46;;;;;;;35.03;4.23;;;;;;;;;;5086230;28;20036;-84
2024/01/22 12:38:11;;;;;;;35.20;4.60;;;;;;;;;;5071255;28;20287;-84
2024/01/22 12:40:37;;;;;;;32.65;3.67;;;;;;;;;;5069014;28;20078;-84
2024/01/22 12:43:04;;;;;;;33.25;4.75;;;;;;;;;;5077707;28;20016;-84
2024/01/22 12:45:29;;;;;;;35.47;4.60;;;;;;;;;;5090352;28;20081;-84
2024/01/22 12:47:54;;;;;;;38.27;5.17;;;;;;;;;;5077034;28;20028;-84
2024/01/22 12:50:20;;;;;;;34.60;4.80;;;;;;;;;;5068671;28;20069;-84
2024/01/22 12:52:45;;;;;;;34.95;4.65;;;;;;;;;;5079100;28;20517;-84
2024/01/22 12:55:11;;;;;;;41.13;5.43;;;;;;;;;;5089497;28;20035;-84
2024/01/22 12:57:36;;;;;;;35.90;5.80;;;;;;;;;;5088498;28;20099;-84
2024/01/22 13:00:04;;;;;;;35.15;5.45;;;;;;;;;;5086844;28;20036;-84
2024/01/22 13:02:30;;;;;;;38.50;5.35;;;;;;;;;;5084254;28;20020;-84
2024/01/22 13:04:55;;;;;;;39.33;5.73;;;;;;;;;;5089566;28;20053;-84
2024/01/22 13:07:20;;;;;;;36.07;5.63;;;;;;;;;;5087024;28;20092;-84
2024/01/22 13:09:45;;;;;;;32.30;5.87;;;;;;;;;;5089131;28;20114;-84
2024/01/22 13:12:11;;;;;;;34.03;5.30;;;;;;;;;;5085722;28;20127;-83
2024/01/22 13:14:36;;;;;;;31.53;5.10;;;;;;;;;;5081861;28;20035;-84
2024/01/22 13:17:03;;;;;;;27.07;4.80;;;;;;;;;;5091580;28;20032;-84
2024/01/22 13:19:29;;;;;;;33.92;4.68;;;;;;;;;;5090132;28;20027;-83
2024/01/22 13:21:54;;;;;;;34.97;4.83;;;;;;;;;;5079405;28;20024;-83
2024/01/22 13:24:19;;;;;;;26.77;4.80;;;;;;;;;;5073128;28;20017;-83
2024/01/22 13:26:45;;;;;;;30.23;4.97;;;;;;;;;;5076467;28;20020;-83
2024/01/22 13:29:10;;;;;;;31.08;4.93;;;;;;;;;;5089680;28;20015;-83
2024/01/22 13:31:35;;;;;;;38.03;5.30;;;;;;;;;;5091318;28;20040;-83
2024/01/22 13:34:01;;;;;;;31.07;4.20;;;;;;;;;;5088329;28;20103;-83
2024/01/22 13:36:26;;;;;;;28.47;4.30;;;;;;;;;;5089032;28;20024;-83
2024/01/22 13:38:51;;;;;;;29.97;4.73;;;;;;;;;;5091558;28;20047;-83
2024/01/22 13:41:18;;;;;;;30.80;4.87;;;;;;;;;;5090231;28;20510;-83
2024/01/22 13:43:44;;;;;;;29.50;4.20;;;;;;;;;;5092517;28;20626;-83
2024/01/22 13:46:10;;;;;;;26.13;4.07;;;;;;;;;;5072759;28;20099;-84
2024/01/22 13:48:35;;;;;;;22.08;3.80;;;;;;;;;;5090103;28;20467;-84
2024/01/22 13:51:00;;;;;;;28.40;4.27;;;;;;;;;;5091420;28;20019;-86
2024/01/22 13:53:26;;;;;;;30.03;4.47;;;;;;;;;;5087697;28;20103;-84
2024/01/22 13:55:51;;;;;;;30.60;3.95;;;;;;;;;;5083934;28;20029;-85
2024/01/22 13:58:16;;;;;;;29.23;3.97;;;;;;;;;;5069411;28;20016;-83
2024/01/22 14:00:41;;;;;;;29.53;4.20;;;;;;;;;;5090847;28;20386;-84
2024/01/22 14:03:06;;;;;;;22.63;4.00;;;;;;;;;;5090748;28;20027;-84
2024/01/22 14:05:32;;;;;;;22.50;4.37;;;;;;;;;;5090794;28;20066;-84
2024/01/22 14:07:57;;;;;;;19.73;3.40;;;;;;;;;;5092416;28;20475;-84
2024/01/22 14:10:22;;;;;;;31.80;4.30;;;;;;;;;;5088970;28;20067;-85
2024/01/22 14:12:47;;;;;;;29.60;4.43;;;;;;;;;;5075491;28;20032;-85
2024/01/22 14:15:13;;;;;;;29.90;4.30;;;;;;;;;;5086591;28;20511;-86
2024/01/22 14:17:38;;;;;;;26.60;4.10;;;;;;;;;;5093439;28;20016;-85
2024/01/22 14:20:04;;;;;;;25.67;3.70;;;;;;;;;;5082394;28;20104;-85
2024/01/22 14:22:29;;;;;;;20.30;3.58;;;;;;;;;;5053201;28;20099;-86
2024/01/22 14:24:54;;;;;;;24.93;3.70;;;;;;;;;;5071020;28;20013;-86
2024/01/22 14:27:19;;;;;;;32.67;4.40;;;;;;;;;;5070470;28;20009;-86